createdAt,value
2019-04-01T00:00:48.155Z,27.57
2019-04-01T00:03:16.430Z,23.87
2019-04-01T00:05:44.688Z,24.30
2019-04-01T00:08:12.977Z,23.33
2019-04-01T00:10:41.241Z,23.73
2019-04-01T00:13:09.510Z,23.83
2019-04-01T00:15:37.774Z,24.23
2019-04-01T00:18:06.076Z,23.00
2019-04-01T00:20:34.327Z,25.30
2019-04-01T00:23:02.798Z,24.97
2019-04-01T00:25:31.265Z,23.93
2019-04-01T00:27:59.532Z,23.63
2019-04-01T00:30:27.814Z,25.33
2019-04-01T00:32:56.075Z,23.73
2019-04-01T00:35:24.357Z,24.93
2019-04-01T00:37:52.818Z,49.27
2019-04-01T00:40:21.132Z,25.83
2019-04-01T00:42:54.679Z,25.57
2019-04-01T00:45:24.705Z,23.50
2019-04-01T00:47:52.917Z,27.10
2019-04-01T00:50:21.263Z,23.60
2019-04-01T00:52:49.530Z,24.83
2019-04-01T00:55:18.685Z,24.27
2019-04-01T00:57:46.955Z,24.50
2019-04-01T01:00:17.157Z,23.40
2019-04-01T01:02:45.439Z,23.30
2019-04-01T01:05:13.732Z,23.63
2019-04-01T01:07:42.008Z,25.70
2019-04-01T01:10:10.635Z,23.70
2019-04-01T01:12:38.917Z,25.70
2019-04-01T01:15:07.530Z,26.43
2019-04-01T01:17:35.841Z,24.27
2019-04-01T01:20:06.227Z,24.30
2019-04-01T01:22:34.488Z,23.73
2019-04-01T01:25:02.776Z,26.93
2019-04-01T01:27:31.197Z,22.70
2019-04-01T01:29:59.478Z,24.97
2019-04-01T01:32:27.818Z,23.83
2019-04-01T01:34:56.062Z,23.10
2019-04-01T01:37:26.534Z,24.53
2019-04-01T01:39:56.052Z,23.97
2019-04-01T01:42:24.347Z,23.50
2019-04-01T01:44:52.621Z,22.87
2019-04-01T01:47:20.895Z,24.70
2019-04-01T01:49:49.158Z,23.90
2019-04-01T01:52:17.437Z,25.57
2019-04-01T01:54:45.690Z,24.73
2019-04-01T01:57:13.955Z,24.93
2019-04-01T01:59:42.302Z,23.03
2019-04-01T02:02:10.585Z,22.67
2019-04-01T02:04:38.854Z,24.90
2019-04-01T02:07:07.138Z,25.10
2019-04-01T02:09:35.460Z,26.53
2019-04-01T02:12:03.730Z,23.87
2019-04-01T02:14:32.013Z,24.17
2019-04-01T02:17:00.275Z,25.60
2019-04-01T02:19:28.557Z,23.07
2019-04-01T02:21:56.820Z,23.93
2019-04-01T02:24:25.103Z,25.00
2019-04-01T02:26:53.380Z,22.00
2019-04-01T02:29:21.665Z,25.80
2019-04-01T02:31:49.968Z,22.10
2019-04-01T02:34:18.242Z,21.93
2019-04-01T02:36:46.529Z,22.60
2019-04-01T02:39:14.800Z,22.73
2019-04-01T02:41:43.075Z,23.53
2019-04-01T02:44:11.348Z,24.20
2019-04-01T02:46:39.611Z,24.60
2019-04-01T02:49:07.899Z,21.10
2019-04-01T02:51:36.181Z,23.13
2019-04-01T02:54:04.873Z,22.97
2019-04-01T02:56:33.166Z,22.20
2019-04-01T02:59:01.424Z,22.50
2019-04-01T03:01:29.676Z,21.70
2019-04-01T03:03:58.027Z,21.40
2019-04-01T03:06:26.315Z,23.20
2019-04-01T03:08:54.606Z,20.93
2019-04-01T03:11:22.965Z,21.83
2019-04-01T03:13:51.226Z,19.83
2019-04-01T03:16:19.483Z,21.87
2019-04-01T03:18:47.772Z,20.80
2019-04-01T03:21:16.228Z,21.90
2019-04-01T03:23:44.482Z,19.67
2019-04-01T03:26:12.753Z,20.80
2019-04-01T03:28:41.050Z,20.40
2019-04-01T03:31:09.347Z,19.10
2019-04-01T03:33:37.684Z,19.80
2019-04-01T03:36:05.962Z,18.37
2019-04-01T03:38:34.229Z,19.60
2019-04-01T03:41:02.511Z,19.37
2019-04-01T03:43:31.862Z,19.97
2019-04-01T03:46:00.128Z,17.33
2019-04-01T03:48:28.424Z,18.30
2019-04-01T03:50:56.694Z,16.70
2019-04-01T03:53:25.033Z,19.10
2019-04-01T03:55:53.307Z,16.63
2019-04-01T03:58:21.565Z,18.30
2019-04-01T04:00:49.832Z,16.17
2019-04-01T04:03:18.153Z,18.80
2019-04-01T04:05:46.443Z,16.60
2019-04-01T04:08:14.696Z,17.93
2019-04-01T04:10:42.968Z,16.30
2019-04-01T04:13:11.309Z,16.63
2019-04-01T04:15:39.582Z,15.53
2019-04-01T04:18:07.919Z,15.43
2019-04-01T04:20:36.185Z,15.83
2019-04-01T04:23:04.464Z,17.43
2019-04-01T04:25:32.737Z,16.37
2019-04-01T04:28:01.017Z,16.13
2019-04-01T04:30:29.746Z,15.70
2019-04-01T04:32:57.988Z,14.87
2019-04-01T04:35:26.271Z,16.03
2019-04-01T04:37:54.549Z,15.53
2019-04-01T04:40:22.814Z,15.50
2019-04-01T04:42:51.081Z,15.50
2019-04-01T04:45:19.360Z,14.40
2019-04-01T04:47:47.730Z,15.57
2019-04-01T04:50:15.990Z,15.30
2019-04-01T04:52:44.282Z,15.57
2019-04-01T04:55:12.544Z,15.17
2019-04-01T04:57:40.813Z,18.17
2019-04-01T05:00:09.137Z,15.03
2019-04-01T05:02:37.420Z,15.60
2019-04-01T05:05:06.662Z,15.90
2019-04-01T05:07:34.919Z,15.20
2019-04-01T05:10:03.548Z,14.50
2019-04-01T05:12:31.817Z,16.27
2019-04-01T05:15:00.388Z,13.90
2019-04-01T05:17:28.747Z,15.40
2019-04-01T05:19:56.997Z,14.83
2019-04-01T05:22:25.336Z,13.60
2019-04-01T05:24:54.275Z,15.90
2019-04-01T05:27:25.139Z,14.77
2019-04-01T05:29:54.332Z,14.57
2019-04-01T05:32:22.880Z,14.13
2019-04-01T05:34:53.043Z,13.00
2019-04-01T05:37:21.312Z,13.37
2019-04-01T05:39:49.653Z,16.20
2019-04-01T05:42:18.036Z,14.27
2019-04-01T05:44:46.290Z,13.17
2019-04-01T05:47:14.562Z,13.70
2019-04-01T05:49:42.821Z,14.93
2019-04-01T05:52:11.106Z,11.33
2019-04-01T05:54:39.445Z,11.80
2019-04-01T05:57:07.707Z,11.03
2019-04-01T05:59:35.982Z,15.67
2019-04-01T06:02:04.696Z,11.60
2019-04-01T06:04:33.023Z,12.80
2019-04-01T06:07:01.376Z,12.93
2019-04-01T06:09:29.621Z,10.73
2019-04-01T06:11:57.886Z,12.03
2019-04-01T06:14:26.156Z,11.57
2019-04-01T06:16:55.094Z,10.80
2019-04-01T06:19:24.240Z,11.30
2019-04-01T06:21:52.650Z,11.83
2019-04-01T06:24:24.493Z,20.63
2019-04-01T06:26:51.195Z,20.40
2019-04-01T06:29:20.041Z,10.90
2019-04-01T06:31:48.383Z,10.17
2019-04-01T06:34:16.652Z,15.77
2019-04-01T06:36:44.929Z,10.67
2019-04-01T06:39:13.201Z,10.80
2019-04-01T06:41:41.466Z,11.43
2019-04-01T06:44:09.733Z,11.93
2019-04-01T06:46:38.075Z,13.03
2019-04-01T06:49:06.380Z,14.00
2019-04-01T06:51:34.908Z,13.77
2019-04-01T06:54:03.161Z,10.97
2019-04-01T06:56:31.435Z,11.10
2019-04-01T06:58:59.887Z,11.77
2019-04-01T07:01:28.449Z,10.90
2019-04-01T07:03:56.688Z,10.73
2019-04-01T07:06:25.037Z,9.70
2019-04-01T07:08:59.941Z,11.30
2019-04-01T07:11:32.150Z,9.97
2019-04-01T07:14:00.509Z,12.60
2019-04-01T07:16:29.333Z,12.07
2019-04-01T07:18:57.985Z,19.73
2019-04-01T07:21:26.246Z,19.60
2019-04-01T07:23:54.586Z,13.80
2019-04-01T07:26:22.919Z,13.83
2019-04-01T07:28:51.190Z,14.30
2019-04-01T07:31:19.537Z,16.50
2019-04-01T07:33:47.812Z,14.33
2019-04-01T07:36:16.141Z,15.03
2019-04-01T07:38:44.514Z,13.70
2019-04-01T07:41:12.788Z,10.33
2019-04-01T07:43:42.492Z,11.23
2019-04-01T07:46:10.755Z,14.90
2019-04-01T07:48:39.034Z,18.73
2019-04-01T07:51:07.553Z,10.60
2019-04-01T07:53:35.883Z,10.43
2019-04-01T07:56:04.255Z,13.23
2019-04-01T07:58:32.889Z,12.17
2019-04-01T08:01:01.349Z,12.60
2019-04-01T08:03:29.587Z,19.87
2019-04-01T08:05:57.869Z,10.60
2019-04-01T08:08:26.138Z,11.30
2019-04-01T08:10:54.392Z,10.50
2019-04-01T08:13:22.673Z,11.23
2019-04-01T08:15:51.009Z,10.83
2019-04-01T08:18:19.267Z,11.63
2019-04-01T08:20:47.560Z,11.43
2019-04-01T08:23:15.834Z,12.07
2019-04-01T08:25:47.674Z,17.53
2019-04-01T08:28:14.115Z,13.90
2019-04-01T08:30:42.375Z,14.63
2019-04-01T08:33:10.745Z,11.80
2019-04-01T08:35:39.063Z,14.83
2019-04-01T08:38:07.364Z,14.87
2019-04-01T08:40:35.824Z,23.10
2019-04-01T08:43:04.161Z,16.47
2019-04-01T08:45:32.472Z,12.10
2019-04-01T08:48:00.738Z,16.70
2019-04-01T08:50:29.022Z,13.53
2019-04-01T08:52:57.372Z,14.23
2019-04-01T08:55:25.646Z,16.80
2019-04-01T08:57:53.986Z,17.93
2019-04-01T09:00:22.316Z,17.13
2019-04-01T09:02:50.569Z,16.87
2019-04-01T09:05:18.912Z,14.50
2019-04-01T09:07:47.184Z,17.20
2019-04-01T09:10:15.474Z,13.63
2019-04-01T09:12:43.804Z,14.23
2019-04-01T09:15:12.350Z,13.47
2019-04-01T09:17:40.796Z,15.67
2019-04-01T09:20:09.367Z,16.93
2019-04-01T09:22:37.654Z,14.80
2019-04-01T09:25:06.763Z,14.80
2019-04-01T09:27:35.040Z,13.70
2019-04-01T09:30:04.234Z,14.47
2019-04-01T09:32:32.517Z,14.80
2019-04-01T09:35:00.794Z,13.13
2019-04-01T09:37:29.071Z,15.10
2019-04-01T09:39:57.379Z,14.30
2019-04-01T09:42:25.670Z,15.47
2019-04-01T09:44:54.038Z,15.40
2019-04-01T09:47:22.380Z,15.70
2019-04-01T09:49:50.676Z,14.67
2019-04-01T09:52:18.940Z,15.00
2019-04-01T09:54:47.196Z,15.03
2019-04-01T09:57:17.920Z,15.60
2019-04-01T09:59:45.457Z,17.57
2019-04-01T10:02:13.749Z,16.47
2019-04-01T10:04:42.028Z,14.07
2019-04-01T10:07:10.315Z,14.73
2019-04-01T10:09:38.593Z,14.53
2019-04-01T10:12:06.936Z,15.53
2019-04-01T10:14:35.220Z,15.77
2019-04-01T10:17:03.476Z,15.53
2019-04-01T10:19:31.779Z,15.57
2019-04-01T10:22:00.045Z,14.87
2019-04-01T10:24:28.337Z,16.13
2019-04-01T10:26:56.619Z,15.47
2019-04-01T10:29:24.878Z,15.20
2019-04-01T10:31:53.168Z,15.70
2019-04-01T10:34:21.439Z,15.77
2019-04-01T10:36:49.714Z,17.57
2019-04-01T10:39:18.017Z,17.10
2019-04-01T10:41:46.350Z,16.53
2019-04-01T10:44:14.634Z,17.07
2019-04-01T10:46:43.019Z,17.50
2019-04-01T10:49:11.358Z,16.43
2019-04-01T10:51:39.699Z,16.80
2019-04-01T10:54:08.037Z,16.27
2019-04-01T10:56:36.338Z,16.20
2019-04-01T10:59:04.795Z,16.23
2019-04-01T11:01:33.109Z,16.37
2019-04-01T11:04:01.371Z,16.87
2019-04-01T11:06:29.680Z,16.60
2019-04-01T11:08:57.984Z,16.30
2019-04-01T11:11:27.223Z,15.50
2019-04-01T11:13:55.588Z,15.80
2019-04-01T11:16:23.857Z,16.67
2019-04-01T11:18:52.217Z,16.43
2019-04-01T11:21:20.499Z,18.37
2019-04-01T11:23:48.880Z,17.90
2019-04-01T11:26:17.155Z,15.77
2019-04-01T11:28:45.483Z,16.27
2019-04-01T11:31:13.827Z,16.03
2019-04-01T11:33:42.043Z,16.87
2019-04-01T11:36:10.370Z,15.80
2019-04-01T11:38:38.642Z,15.30
2019-04-01T11:41:06.980Z,16.23
2019-04-01T11:43:35.776Z,15.60
2019-04-01T11:46:04.535Z,16.00
2019-04-01T11:48:32.789Z,15.57
2019-04-01T11:51:01.114Z,15.23
2019-04-01T11:53:29.474Z,15.97
2019-04-01T11:55:57.790Z,15.77
2019-04-01T11:58:26.169Z,15.40
2019-04-01T12:00:54.436Z,14.17
2019-04-01T12:03:22.714Z,14.13
2019-04-01T12:05:52.246Z,14.33
2019-04-01T12:08:20.652Z,14.77
2019-04-01T12:10:48.941Z,13.90
2019-04-01T12:13:17.296Z,31.70
2019-04-01T12:15:45.963Z,17.20
2019-04-01T12:18:14.236Z,16.83
2019-04-01T12:20:42.552Z,16.17
2019-04-01T12:23:10.841Z,17.17
2019-04-01T12:25:39.229Z,15.47
2019-04-01T12:28:07.904Z,14.13
2019-04-01T12:30:36.170Z,14.83
2019-04-01T12:33:04.557Z,15.90
2019-04-01T12:35:32.869Z,16.77
2019-04-01T12:38:01.119Z,16.00
2019-04-01T12:40:29.409Z,12.93
2019-04-01T12:42:57.825Z,13.37
2019-04-01T12:45:26.548Z,13.93
2019-04-01T12:47:54.821Z,14.50
2019-04-01T12:50:23.117Z,14.53
2019-04-01T12:52:51.375Z,15.17
2019-04-01T12:55:19.652Z,15.00
2019-04-01T12:57:48.479Z,15.07
2019-04-01T13:00:17.333Z,13.30
2019-04-01T13:02:45.627Z,15.03
2019-04-01T13:05:14.097Z,13.70
2019-04-01T13:07:42.371Z,13.03
2019-04-01T13:10:10.819Z,13.67
2019-04-01T13:12:39.081Z,14.97
2019-04-01T13:15:08.414Z,14.03
2019-04-01T13:17:36.678Z,13.63
2019-04-01T13:20:06.312Z,12.73
2019-04-01T13:22:34.586Z,13.33
2019-04-01T13:25:07.584Z,13.10
2019-04-01T13:27:35.852Z,12.80
2019-04-01T13:30:05.885Z,12.97
2019-04-01T13:32:34.178Z,12.80
2019-04-01T13:35:02.452Z,13.97
2019-04-01T13:37:30.746Z,13.50
2019-04-01T13:40:02.167Z,12.80
2019-04-01T13:42:29.069Z,14.10
2019-04-01T13:44:57.369Z,13.67
2019-04-01T13:47:27.291Z,13.67
2019-04-01T13:49:55.632Z,14.37
2019-04-01T13:52:23.910Z,12.10
2019-04-01T13:54:52.186Z,12.63
2019-04-01T13:57:20.470Z,12.13
2019-04-01T13:59:49.857Z,11.90
2019-04-01T14:02:18.721Z,12.97
2019-04-01T14:04:47.029Z,13.03
2019-04-01T14:07:15.296Z,13.07
2019-04-01T14:09:43.603Z,12.47
2019-04-01T14:12:11.871Z,13.33
2019-04-01T14:14:40.235Z,13.20
2019-04-01T14:17:08.452Z,11.73
2019-04-01T14:19:36.767Z,11.67
2019-04-01T14:22:05.031Z,12.17
2019-04-01T14:24:33.336Z,11.83
2019-04-01T14:27:01.605Z,12.07
2019-04-01T14:29:29.889Z,12.00
2019-04-01T14:31:58.155Z,12.57
2019-04-01T14:34:26.455Z,11.87
2019-04-01T14:36:54.735Z,13.07
2019-04-01T14:39:23.046Z,12.57
2019-04-01T14:41:51.307Z,12.70
2019-04-01T14:44:19.583Z,13.47
2019-04-01T14:46:47.926Z,10.40
2019-04-01T14:49:16.205Z,12.73
2019-04-01T14:51:44.492Z,12.37
2019-04-01T14:54:12.767Z,11.17
2019-04-01T14:56:41.166Z,12.20
2019-04-01T14:59:09.435Z,12.47
2019-04-01T15:01:37.715Z,11.50
2019-04-01T15:04:05.984Z,13.30
2019-04-01T15:06:34.273Z,14.10
2019-04-01T15:09:02.569Z,12.10
2019-04-01T15:11:30.856Z,12.60
2019-04-01T15:14:00.175Z,12.83
2019-04-01T15:16:28.860Z,16.33
2019-04-01T15:18:57.193Z,12.63
2019-04-01T15:21:25.505Z,12.67
2019-04-01T15:23:53.767Z,22.50
2019-04-01T15:26:22.111Z,17.50
2019-04-01T15:28:50.385Z,12.63
2019-04-01T15:31:18.652Z,11.83
2019-04-01T15:33:46.924Z,12.80
2019-04-01T15:36:15.227Z,12.20
2019-04-01T15:38:43.498Z,12.70
2019-04-01T15:41:11.780Z,13.80
2019-04-01T15:43:41.046Z,12.57
2019-04-01T15:46:09.861Z,11.23
2019-04-01T15:48:38.155Z,12.43
2019-04-01T15:51:07.781Z,13.50
2019-04-01T15:53:36.302Z,14.07
2019-04-01T15:56:04.602Z,13.93
2019-04-01T15:58:32.899Z,12.73
2019-04-01T16:01:01.332Z,11.53
2019-04-01T16:03:30.028Z,12.37
2019-04-01T16:05:58.292Z,13.40
2019-04-01T16:08:26.582Z,12.63
2019-04-01T16:10:54.871Z,13.07
2019-04-01T16:13:23.149Z,13.13
2019-04-01T16:15:51.433Z,12.20
2019-04-01T16:18:19.706Z,12.73
2019-04-01T16:20:48.009Z,13.57
2019-04-01T16:23:16.297Z,15.73
2019-04-01T16:25:44.582Z,13.20
2019-04-01T16:28:12.861Z,14.20
2019-04-01T16:30:41.268Z,13.87
2019-04-01T16:33:09.560Z,13.00
2019-04-01T16:35:37.854Z,13.97
2019-04-01T16:38:06.203Z,12.83
2019-04-01T16:40:34.543Z,13.10
2019-04-01T16:43:02.817Z,13.40
2019-04-01T16:45:31.120Z,12.13
2019-04-01T16:47:59.424Z,13.13
2019-04-01T16:50:28.707Z,13.50
2019-04-01T16:52:58.115Z,12.60
2019-04-01T16:55:26.654Z,13.13
2019-04-01T16:57:54.926Z,12.30
2019-04-01T17:00:25.966Z,13.20
2019-04-01T17:02:54.256Z,12.97
2019-04-01T17:05:25.729Z,13.20
2019-04-01T17:07:54.016Z,13.07
2019-04-01T17:10:23.240Z,12.00
2019-04-01T17:12:51.514Z,14.07
2019-04-01T17:15:21.199Z,11.80
2019-04-01T17:17:49.773Z,16.37
2019-04-01T17:20:18.136Z,13.47
2019-04-01T17:22:46.520Z,12.57
2019-04-01T17:25:14.858Z,11.90
2019-04-01T17:27:43.230Z,11.00
2019-04-01T17:30:11.902Z,11.50
2019-04-01T17:32:40.184Z,12.60
2019-04-01T17:35:08.537Z,14.43
2019-04-01T17:37:37.929Z,12.10
2019-04-01T17:40:08.291Z,12.20
2019-04-01T17:42:39.196Z,11.60
2019-04-01T17:45:25.142Z,12.57
2019-04-01T17:47:53.483Z,12.40
2019-04-01T17:50:21.784Z,11.93
2019-04-01T17:52:50.066Z,11.57
2019-04-01T17:55:18.412Z,12.33
2019-04-01T17:57:46.744Z,12.23
2019-04-01T18:00:18.197Z,13.00
2019-04-01T18:02:46.486Z,13.70
2019-04-01T18:05:16.319Z,11.90
2019-04-01T18:07:46.373Z,13.93
2019-04-01T18:10:15.045Z,20.87
2019-04-01T18:12:43.418Z,13.60
2019-04-01T18:15:11.972Z,12.10
2019-04-01T18:17:41.195Z,14.17
2019-04-01T18:20:10.378Z,12.33
2019-04-01T18:22:38.655Z,13.97
2019-04-01T18:25:07.013Z,12.83
2019-04-01T18:27:35.311Z,13.63
2019-04-01T18:30:07.756Z,12.50
2019-04-01T18:32:36.059Z,13.20
2019-04-01T18:35:06.069Z,13.70
2019-04-01T18:37:34.354Z,11.80
2019-04-01T18:40:03.098Z,14.90
2019-04-01T18:42:31.645Z,12.87
2019-04-01T18:45:00.024Z,12.97
2019-04-01T18:47:28.318Z,32.57
2019-04-01T18:49:56.599Z,15.50
2019-04-01T18:52:24.891Z,12.57
2019-04-01T18:54:53.207Z,12.50
2019-04-01T18:57:21.492Z,12.30
2019-04-01T18:59:50.074Z,12.40
2019-04-01T19:02:18.536Z,13.30
2019-04-01T19:04:46.850Z,13.03
2019-04-01T19:07:15.105Z,13.80
2019-04-01T19:09:43.409Z,14.30
2019-04-01T19:12:11.721Z,13.20
2019-04-01T19:14:40.182Z,14.93
2019-04-01T19:17:08.514Z,17.27
2019-04-01T19:19:39.922Z,23.23
2019-04-01T19:22:06.837Z,14.77
2019-04-01T19:24:35.115Z,15.60
2019-04-01T19:27:03.417Z,13.33
2019-04-01T19:29:31.679Z,12.77
2019-04-01T19:32:00.000Z,14.57
2019-04-01T19:34:28.265Z,14.10
2019-04-01T19:36:56.596Z,14.80
2019-04-01T19:39:24.893Z,13.93
2019-04-01T19:41:53.248Z,13.50
2019-04-01T19:44:21.537Z,12.17
2019-04-01T19:46:49.806Z,13.20
2019-04-01T19:49:18.097Z,13.17
2019-04-01T19:51:46.406Z,13.27
2019-04-01T19:54:14.697Z,13.30
2019-04-01T19:56:42.984Z,12.90
2019-04-01T19:59:11.286Z,13.40
2019-04-01T20:01:39.584Z,12.27
2019-04-01T20:04:07.854Z,12.47
2019-04-01T20:06:36.125Z,13.27
2019-04-01T20:09:06.443Z,14.33
2019-04-01T20:11:34.723Z,12.80
2019-04-01T20:14:03.318Z,19.50
2019-04-01T20:16:31.598Z,13.33
2019-04-01T20:18:59.900Z,13.00
2019-04-01T20:21:28.512Z,13.93
2019-04-01T20:23:57.005Z,16.43
2019-04-01T20:26:25.265Z,15.43
2019-04-01T20:28:53.570Z,12.67
2019-04-01T20:31:21.836Z,13.67
2019-04-01T20:33:50.209Z,13.57
2019-04-01T20:36:28.349Z,14.20
2019-04-01T20:38:48.512Z,12.30
2019-04-01T20:41:16.772Z,13.37
2019-04-01T20:43:45.066Z,12.80
2019-04-01T20:46:13.358Z,13.70
2019-04-01T20:48:41.636Z,13.23
2019-04-01T20:51:09.940Z,14.40
2019-04-01T20:53:38.230Z,14.10
2019-04-01T20:56:06.575Z,14.60
2019-04-01T20:58:34.872Z,13.93
2019-04-01T21:01:03.149Z,33.10
2019-04-01T21:03:31.415Z,20.97
2019-04-01T21:05:59.785Z,33.67
2019-04-01T21:08:28.089Z,23.20
2019-04-01T21:10:56.358Z,28.37
2019-04-01T21:13:24.634Z,17.10
2019-04-01T21:15:52.919Z,18.47
2019-04-01T21:18:21.256Z,17.90
2019-04-01T21:20:49.524Z,21.43
2019-04-01T21:23:17.798Z,17.87
2019-04-01T21:25:46.069Z,19.33
2019-04-01T21:28:14.535Z,14.90
2019-04-01T21:30:42.885Z,36.20
2019-04-01T21:33:11.204Z,15.47
2019-04-01T21:35:39.481Z,17.90
2019-04-01T21:38:07.767Z,16.73
2019-04-01T21:40:36.119Z,16.43
2019-04-01T21:43:07.688Z,18.37
2019-04-01T21:45:37.631Z,19.30
2019-04-01T21:48:10.435Z,14.93
2019-04-01T21:50:38.663Z,16.83
2019-04-01T21:53:07.064Z,16.07
2019-04-01T21:55:37.027Z,15.77
2019-04-01T21:58:05.314Z,15.53
2019-04-01T22:00:51.233Z,17.97
2019-04-01T22:03:19.649Z,17.27
2019-04-01T22:05:48.174Z,15.87
2019-04-01T22:08:16.478Z,15.17
2019-04-01T22:10:44.762Z,15.07
2019-04-01T22:13:13.025Z,19.73
2019-04-01T22:15:41.420Z,15.10
2019-04-01T22:18:09.819Z,24.50
2019-04-01T22:20:39.356Z,39.40
2019-04-01T22:23:11.292Z,69.93
2019-04-01T22:25:39.586Z,50.47
2019-04-01T22:28:07.864Z,38.80
2019-04-01T22:30:36.145Z,27.90
2019-04-01T22:33:04.427Z,20.60
2019-04-01T22:35:38.654Z,18.47
2019-04-01T22:38:06.353Z,23.23
2019-04-01T22:40:34.896Z,17.87
2019-04-01T22:43:03.396Z,16.03
2019-04-01T22:45:31.736Z,16.17
2019-04-01T22:48:00.005Z,16.23
2019-04-01T22:50:28.276Z,14.60
2019-04-01T22:52:56.545Z,15.07
2019-04-01T22:55:24.964Z,16.10
2019-04-01T22:57:54.282Z,15.77
2019-04-01T23:00:23.848Z,16.33
2019-04-01T23:02:52.057Z,15.73
2019-04-01T23:05:20.344Z,16.47
2019-04-01T23:07:48.681Z,17.13
2019-04-01T23:10:17.034Z,16.20
2019-04-01T23:12:46.854Z,17.07
2019-04-01T23:15:16.676Z,15.43
2019-04-01T23:17:45.460Z,17.00
2019-04-01T23:20:15.373Z,17.53
2019-04-01T23:22:43.819Z,16.97
2019-04-01T23:25:12.185Z,16.83
2019-04-01T23:27:42.853Z,17.70
2019-04-01T23:30:15.208Z,15.47
2019-04-01T23:32:46.640Z,17.00
2019-04-01T23:35:15.036Z,18.27
2019-04-01T23:37:44.869Z,17.63
2019-04-01T23:40:14.754Z,16.70
2019-04-01T23:42:44.577Z,17.47
2019-04-01T23:45:14.478Z,16.43
2019-04-01T23:47:45.358Z,16.93
2019-04-01T23:50:14.016Z,16.57
2019-04-01T23:52:43.842Z,17.40
2019-04-01T23:55:13.664Z,18.37
2019-04-01T23:57:41.936Z,16.63
